Terminal Aerodrome Forecast
Issued by NWS

Home | Current Version | Previous Version | Text Only | Print | Product List | Glossary On
Versions: 1 2 3 4 5 6 7 8 9 10 11 12 13 14 15 16 17 18 19 20 21 22 23
000
FTUS46 KMFR 301135
TAFOTH
TAF
KOTH 301135Z 3012/0112 35005KT P6SM BKN004 OVC014
      TEMPO 3012/3015 2SM BR
     FM301500 35005KT 4SM BR OVC005
     FM301700 35010KT P6SM SCT012
     FM302000 35020G30KT P6SM SKC
     FM010600 36010KT P6SM BKN010
     FM010900 36008KT 3SM BR OVC006=

USA.gov is the U.S. government's official web portal to all federal, state and local government web resources and services.